createdAt,value
2019-04-21T00:12:51.799Z,37.20
2019-04-21T00:25:56.076Z,37.30
2019-04-21T00:39:26.626Z,37.50
2019-04-21T00:52:36.690Z,37.60
2019-04-21T01:05:46.963Z,37.80
2019-04-21T01:19:05.061Z,37.90
2019-04-21T01:32:31.277Z,38.00
2019-04-21T01:45:48.749Z,38.20
2019-04-21T01:59:03.439Z,38.30
2019-04-21T02:12:39.062Z,38.40
2019-04-21T02:25:57.801Z,38.50
2019-04-21T02:39:29.683Z,38.70
2019-04-21T02:53:09.531Z,38.80
2019-04-21T03:06:18.539Z,38.90
2019-04-21T03:19:47.415Z,39.00
2019-04-21T03:46:41.301Z,39.20
2019-04-21T03:59:45.551Z,39.30
2019-04-21T04:26:24.453Z,39.50
2019-04-21T04:39:36.657Z,39.60
2019-04-21T04:52:32.586Z,39.60
2019-04-21T05:05:55.636Z,39.70
2019-04-21T05:19:13.202Z,39.80
2019-04-21T05:32:13.478Z,40.10
2019-04-21T05:45:38.736Z,40.50
2019-04-21T06:12:04.733Z,40.00
2019-04-21T06:38:26.555Z,40.00
2019-04-21T06:51:27.934Z,39.90
2019-04-21T07:04:29.616Z,39.90
2019-04-21T07:44:00.231Z,40.00
2019-04-21T07:57:23.568Z,40.50
2019-04-21T08:10:45.284Z,41.90
2019-04-21T08:37:18.575Z,41.50
2019-04-21T08:50:25.602Z,41.60
2019-04-21T09:03:28.491Z,41.70
2019-04-21T09:16:35.536Z,41.50
2019-04-21T09:42:38.640Z,40.30
2019-04-21T09:55:46.529Z,38.90
2019-04-21T10:08:48.482Z,38.40
2019-04-21T10:21:54.239Z,36.40
2019-04-21T10:35:01.155Z,35.20
2019-04-21T11:14:17.592Z,29.80
2019-04-21T11:40:30.057Z,31.60
2019-04-21T11:53:37.218Z,32.00
2019-04-21T12:06:47.251Z,26.70
2019-04-21T12:19:52.657Z,27.30
2019-04-21T12:33:00.039Z,29.10
2019-04-21T12:46:06.048Z,29.50
2019-04-21T12:59:32.157Z,27.40
2019-04-21T13:12:52.674Z,30.70
2019-04-21T13:26:27.084Z,29.70
2019-04-21T13:39:55.611Z,28.70
2019-04-21T13:53:01.141Z,27.90
2019-04-21T14:06:24.638Z,29.90
2019-04-21T14:19:46.751Z,27.80
2019-04-21T14:33:10.015Z,26.20
2019-04-21T14:46:33.222Z,28.20
2019-04-21T14:59:55.207Z,28.70
2019-04-21T15:13:18.004Z,29.30
2019-04-21T15:26:42.059Z,28.10
2019-04-21T15:40:13.949Z,29.00
2019-04-21T16:06:28.040Z,30.60
2019-04-21T16:19:36.295Z,31.20
2019-04-21T16:32:42.758Z,31.60
2019-04-21T16:45:50.749Z,31.20
2019-04-21T16:58:57.024Z,30.90
2019-04-21T17:12:06.380Z,30.80
2019-04-21T17:25:29.647Z,30.60
2019-04-21T17:38:50.695Z,30.40
2019-04-21T18:05:32.085Z,32.20
2019-04-21T18:18:42.833Z,32.60
2019-04-21T18:32:06.337Z,32.70
2019-04-21T18:45:51.871Z,32.90
2019-04-21T18:58:51.158Z,33.00
2019-04-21T19:12:47.765Z,33.10
2019-04-21T19:25:55.635Z,33.20
2019-04-21T19:39:07.629Z,33.40
2019-04-21T19:52:30.963Z,33.40
2019-04-21T20:18:54.879Z,33.70
2019-04-21T20:45:28.974Z,33.80
2019-04-21T20:58:26.405Z,33.90
2019-04-21T21:11:34.129Z,34.00
2019-04-21T21:24:41.965Z,34.00
2019-04-21T21:37:43.873Z,34.20
2019-04-21T21:50:44.426Z,34.30
2019-04-21T22:04:08.414Z,34.40
2019-04-21T22:17:33.701Z,34.50
2019-04-21T22:30:48.262Z,34.60
2019-04-21T22:44:07.967Z,34.70
2019-04-21T22:57:32.700Z,34.80
2019-04-21T23:10:59.157Z,34.90
2019-04-21T23:24:38.034Z,35.20
2019-04-21T23:51:25.890Z,35.50
